sensor_id;sensor_type;location;lat;lon;timestamp;pressure;altitude;pressure_sealevel;temperature;humidity
6132;BME280;3097;42.692;23.278;2024-01-30T00:01:25;96966.78;;;1.90;64.92
6132;BME280;3097;42.692;23.278;2024-01-30T00:03:50;96969.56;;;1.76;65.13
6132;BME280;3097;42.692;23.278;2024-01-30T00:06:18;96983.09;;;1.77;64.99
6132;BME280;3097;42.692;23.278;2024-01-30T00:08:46;96978.59;;;1.80;64.88
6132;BME280;3097;42.692;23.278;2024-01-30T00:11:14;96967.03;;;1.87;64.88
6132;BME280;3097;42.692;23.278;2024-01-30T00:13:40;96976.50;;;1.85;64.63
6132;BME280;3097;42.692;23.278;2024-01-30T00:16:05;96976.72;;;1.82;64.90
6132;BME280;3097;42.692;23.278;2024-01-30T00:18:31;96982.72;;;1.81;64.64
6132;BME280;3097;42.692;23.278;2024-01-30T00:20:57;96982.50;;;1.84;64.19
6132;BME280;3097;42.692;23.278;2024-01-30T00:23:22;96982.97;;;1.78;64.72
6132;BME280;3097;42.692;23.278;2024-01-30T00:25:48;96983.44;;;1.83;64.64
6132;BME280;3097;42.692;23.278;2024-01-30T00:28:13;96983.44;;;1.72;64.93
6132;BME280;3097;42.692;23.278;2024-01-30T00:30:39;96976.16;;;1.79;64.80
6132;BME280;3097;42.692;23.278;2024-01-30T00:33:04;96975.00;;;1.83;64.93
6132;BME280;3097;42.692;23.278;2024-01-30T00:35:30;96975.25;;;1.80;65.14
6132;BME280;3097;42.692;23.278;2024-01-30T00:37:56;96971.75;;;1.81;65.12
6132;BME280;3097;42.692;23.278;2024-01-30T00:40:22;96957.78;;;1.64;65.09
6132;BME280;3097;42.692;23.278;2024-01-30T00:42:48;96969.66;;;1.75;65.44
6132;BME280;3097;42.692;23.278;2024-01-30T00:45:14;96970.72;;;1.72;65.36
6132;BME280;3097;42.692;23.278;2024-01-30T00:47:40;96965.84;;;1.69;65.39
6132;BME280;3097;42.692;23.278;2024-01-30T00:50:06;96955.44;;;1.61;65.38
6132;BME280;3097;42.692;23.278;2024-01-30T00:52:32;96969.22;;;1.70;65.57
6132;BME280;3097;42.692;23.278;2024-01-30T00:54:59;96950.84;;;1.55;66.06
6132;BME280;3097;42.692;23.278;2024-01-30T00:57:25;96966.19;;;1.53;65.70
6132;BME280;3097;42.692;23.278;2024-01-30T00:59:50;96967.94;;;1.64;65.56
6132;BME280;3097;42.692;23.278;2024-01-30T01:02:16;96966.44;;;1.62;65.84
6132;BME280;3097;42.692;23.278;2024-01-30T01:04:43;96977.19;;;1.65;66.00
6132;BME280;3097;42.692;23.278;2024-01-30T01:07:10;96953.34;;;1.33;65.49
6132;BME280;3097;42.692;23.278;2024-01-30T01:09:35;96965.38;;;1.53;65.74
6132;BME280;3097;42.692;23.278;2024-01-30T01:12:02;96974.06;;;1.62;65.71
6132;BME280;3097;42.692;23.278;2024-01-30T01:14:27;96963.44;;;1.57;65.83
6132;BME280;3097;42.692;23.278;2024-01-30T01:16:53;96968.16;;;1.61;65.91
6132;BME280;3097;42.692;23.278;2024-01-30T01:19:18;96916.81;;;1.11;65.91
6132;BME280;3097;42.692;23.278;2024-01-30T01:21:44;96979.34;;;1.59;66.12
6132;BME280;3097;42.692;23.278;2024-01-30T01:24:09;96977.63;;;1.59;66.24
6132;BME280;3097;42.692;23.278;2024-01-30T01:26:35;96977.06;;;1.55;66.25
6132;BME280;3097;42.692;23.278;2024-01-30T01:29:00;96977.16;;;1.54;66.59
6132;BME280;3097;42.692;23.278;2024-01-30T01:31:26;96970.47;;;1.53;66.85
6132;BME280;3097;42.692;23.278;2024-01-30T01:33:54;96973.81;;;1.42;66.60
6132;BME280;3097;42.692;23.278;2024-01-30T01:36:20;96972.28;;;1.40;66.66
6132;BME280;3097;42.692;23.278;2024-01-30T01:38:46;96969.16;;;1.36;66.13
6132;BME280;3097;42.692;23.278;2024-01-30T01:41:11;96978.53;;;1.47;66.07
6132;BME280;3097;42.692;23.278;2024-01-30T01:43:37;96976.91;;;1.46;65.74
6132;BME280;3097;42.692;23.278;2024-01-30T01:46:05;96979.31;;;1.36;65.53
6132;BME280;3097;42.692;23.278;2024-01-30T01:48:31;96972.19;;;1.41;65.08
6132;BME280;3097;42.692;23.278;2024-01-30T01:50:57;96952.75;;;1.29;65.49
6132;BME280;3097;42.692;23.278;2024-01-30T01:53:22;96969.09;;;1.49;65.32
6132;BME280;3097;42.692;23.278;2024-01-30T01:55:48;96978.75;;;1.44;65.12
6132;BME280;3097;42.692;23.278;2024-01-30T01:58:14;96964.72;;;1.16;65.56
6132;BME280;3097;42.692;23.278;2024-01-30T02:00:40;96981.59;;;1.17;65.60
6132;BME280;3097;42.692;23.278;2024-01-30T02:03:10;96983.78;;;1.22;65.84
6132;BME280;3097;42.692;23.278;2024-01-30T02:05:38;96977.69;;;1.24;66.12
6132;BME280;3097;42.692;23.278;2024-01-30T02:08:04;96983.78;;;1.22;65.84
6132;BME280;3097;42.692;23.278;2024-01-30T02:10:30;96978.34;;;1.15;65.76
6132;BME280;3097;42.692;23.278;2024-01-30T02:12:55;96983.78;;;1.22;65.74
6132;BME280;3097;42.692;23.278;2024-01-30T02:15:21;96984.84;;;1.19;65.78
6132;BME280;3097;42.692;23.278;2024-01-30T02:17:47;96985.88;;;1.16;65.35
6132;BME280;3097;42.692;23.278;2024-01-30T02:20:12;96988.66;;;1.25;65.35
6132;BME280;3097;42.692;23.278;2024-01-30T02:22:39;96986.56;;;1.19;65.50
6132;BME280;3097;42.692;23.278;2024-01-30T02:25:06;96982.97;;;1.21;65.20
6132;BME280;3097;42.692;23.278;2024-01-30T02:27:31;96944.59;;;1.02;64.97
6132;BME280;3097;42.692;23.278;2024-01-30T02:29:57;96972.16;;;1.30;65.26
6132;BME280;3097;42.692;23.278;2024-01-30T02:32:22;96978.75;;;1.44;64.84
6132;BME280;3097;42.692;23.278;2024-01-30T02:34:48;96974.13;;;1.38;64.49
6132;BME280;3097;42.692;23.278;2024-01-30T02:37:13;96981.28;;;1.44;64.77
6132;BME280;3097;42.692;23.278;2024-01-30T02:39:39;96975.53;;;1.42;64.56
6132;BME280;3097;42.692;23.278;2024-01-30T02:42:06;96969.25;;;1.24;64.25
6132;BME280;3097;42.692;23.278;2024-01-30T02:44:31;96983.56;;;1.25;64.76
6132;BME280;3097;42.692;23.278;2024-01-30T02:46:57;96936.78;;;1.05;64.50
6132;BME280;3097;42.692;23.278;2024-01-30T02:49:22;96971.91;;;1.22;64.76
6132;BME280;3097;42.692;23.278;2024-01-30T02:51:48;96983.56;;;1.25;64.75
6132;BME280;3097;42.692;23.278;2024-01-30T02:54:13;96965.91;;;1.23;64.98
6132;BME280;3097;42.692;23.278;2024-01-30T02:56:39;96981.03;;;1.36;64.56
6132;BME280;3097;42.692;23.278;2024-01-30T02:59:04;96978.72;;;1.22;64.69
6132;BME280;3097;42.692;23.278;2024-01-30T03:01:30;96964.16;;;1.12;64.66
6132;BME280;3097;42.692;23.278;2024-01-30T03:03:57;96982.41;;;1.17;64.92
6132;BME280;3097;42.692;23.278;2024-01-30T03:06:22;96975.59;;;1.29;65.06
6132;BME280;3097;42.692;23.278;2024-01-30T03:08:48;96888.22;;;0.74;64.81
6132;BME280;3097;42.692;23.278;2024-01-30T03:11:13;96926.06;;;1.12;64.68
6132;BME280;3097;42.692;23.278;2024-01-30T03:13:39;96971.94;;;1.44;64.38
6132;BME280;3097;42.692;23.278;2024-01-30T03:16:06;96966.41;;;1.39;63.99
6132;BME280;3097;42.692;23.278;2024-01-30T03:18:31;96973.00;;;1.42;64.20
6132;BME280;3097;42.692;23.278;2024-01-30T03:20:57;96957.25;;;1.26;64.04
6132;BME280;3097;42.692;23.278;2024-01-30T03:23:22;96969.66;;;1.41;64.28
6132;BME280;3097;42.692;23.278;2024-01-30T03:25:48;96942.13;;;1.24;64.26
6132;BME280;3097;42.692;23.278;2024-01-30T03:28:13;96949.19;;;1.32;63.82
6132;BME280;3097;42.692;23.278;2024-01-30T03:30:39;96972.06;;;1.43;63.40
6132;BME280;3097;42.692;23.278;2024-01-30T03:33:04;96969.50;;;1.32;63.31
6132;BME280;3097;42.692;23.278;2024-01-30T03:35:30;96961.13;;;1.07;64.36
6132;BME280;3097;42.692;23.278;2024-01-30T03:37:55;96959.50;;;1.06;64.23
6132;BME280;3097;42.692;23.278;2024-01-30T03:40:22;96956.53;;;1.12;64.37
6132;BME280;3097;42.692;23.278;2024-01-30T03:42:47;96963.78;;;1.06;64.04
6132;BME280;3097;42.692;23.278;2024-01-30T03:45:13;96923.47;;;0.90;63.69
6132;BME280;3097;42.692;23.278;2024-01-30T03:47:38;96961.56;;;1.01;63.40
6132;BME280;3097;42.692;23.278;2024-01-30T03:50:04;96963.03;;;0.93;64.17
6132;BME280;3097;42.692;23.278;2024-01-30T03:52:30;96908.63;;;0.73;64.15
6132;BME280;3097;42.692;23.278;2024-01-30T03:54:55;96960.56;;;1.04;63.71
6132;BME280;3097;42.692;23.278;2024-01-30T03:57:21;96946.78;;;0.95;63.69
6132;BME280;3097;42.692;23.278;2024-01-30T03:59:47;96952.69;;;1.07;63.60
6132;BME280;3097;42.692;23.278;2024-01-30T04:02:12;96956.94;;;0.95;63.49
6132;BME280;3097;42.692;23.278;2024-01-30T04:04:38;96952.13;;;1.03;63.29
6132;BME280;3097;42.692;23.278;2024-01-30T04:07:03;96900.53;;;0.68;63.17
6132;BME280;3097;42.692;23.278;2024-01-30T04:09:29;96946.88;;;0.94;63.27
6132;BME280;3097;42.692;23.278;2024-01-30T04:11:54;96938.34;;;0.95;63.22
6132;BME280;3097;42.692;23.278;2024-01-30T04:14:20;96947.88;;;1.15;62.91
6132;BME280;3097;42.692;23.278;2024-01-30T04:16:46;96951.66;;;1.09;62.88
6132;BME280;3097;42.692;23.278;2024-01-30T04:19:11;96941.47;;;0.98;63.21
6132;BME280;3097;42.692;23.278;2024-01-30T04:21:37;96958.59;;;1.07;63.40
6132;BME280;3097;42.692;23.278;2024-01-30T04:24:02;96959.94;;;1.00;63.15
6132;BME280;3097;42.692;23.278;2024-01-30T04:26:28;96950.59;;;1.01;63.26
6132;BME280;3097;42.692;23.278;2024-01-30T04:28:53;96957.66;;;0.97;63.26
6132;BME280;3097;42.692;23.278;2024-01-30T04:31:19;96961.56;;;1.01;63.35
6132;BME280;3097;42.692;23.278;2024-01-30T04:33:44;96930.22;;;0.78;63.31
6132;BME280;3097;42.692;23.278;2024-01-30T04:36:10;96966.56;;;0.79;63.65
6132;BME280;3097;42.692;23.278;2024-01-30T04:38:37;96946.66;;;0.62;63.59
6132;BME280;3097;42.692;23.278;2024-01-30T04:41:03;96967.22;;;0.70;63.81
6132;BME280;3097;42.692;23.278;2024-01-30T04:43:29;96970.03;;;0.78;64.11
6132;BME280;3097;42.692;23.278;2024-01-30T04:45:55;96947.63;;;0.72;63.92
6132;BME280;3097;42.692;23.278;2024-01-30T04:48:21;96967.97;;;0.83;63.61
6132;BME280;3097;42.692;23.278;2024-01-30T04:50:46;96973.75;;;0.61;64.07
6132;BME280;3097;42.692;23.278;2024-01-30T04:53:12;96938.44;;;0.34;64.21
6132;BME280;3097;42.692;23.278;2024-01-30T04:55:37;96985.34;;;0.53;64.67
6132;BME280;3097;42.692;23.278;2024-01-30T04:58:03;96987.22;;;0.51;65.28
6132;BME280;3097;42.692;23.278;2024-01-30T05:00:28;96991.66;;;0.47;65.36
6132;BME280;3097;42.692;23.278;2024-01-30T05:02:57;96984.72;;;0.62;64.92
6132;BME280;3097;42.692;23.278;2024-01-30T05:05:22;96987.25;;;0.62;64.78
6132;BME280;3097;42.692;23.278;2024-01-30T05:07:48;96993.03;;;0.64;65.03
6132;BME280;3097;42.692;23.278;2024-01-30T05:10:14;96976.31;;;0.37;65.47
6132;BME280;3097;42.692;23.278;2024-01-30T05:12:40;96998.75;;;0.55;65.64
6132;BME280;3097;42.692;23.278;2024-01-30T05:15:06;96993.38;;;0.59;65.95
6132;BME280;3097;42.692;23.278;2024-01-30T05:17:32;96990.41;;;0.65;65.40
6132;BME280;3097;42.692;23.278;2024-01-30T05:19:58;96997.47;;;0.73;65.35
6132;BME280;3097;42.692;23.278;2024-01-30T05:22:24;96996.13;;;0.80;65.12
6132;BME280;3097;42.692;23.278;2024-01-30T05:24:49;96994.06;;;0.85;64.89
6132;BME280;3097;42.692;23.278;2024-01-30T05:27:14;96990.06;;;0.94;64.56
6132;BME280;3097;42.692;23.278;2024-01-30T05:29:40;96989.69;;;0.87;64.74
6132;BME280;3097;42.692;23.278;2024-01-30T05:32:06;96989.13;;;0.95;64.62
6132;BME280;3097;42.692;23.278;2024-01-30T05:34:32;96966.94;;;0.86;64.64
6132;BME280;3097;42.692;23.278;2024-01-30T05:36:58;96989.94;;;0.95;64.64
6132;BME280;3097;42.692;23.278;2024-01-30T05:39:23;96972.84;;;0.86;64.26
6132;BME280;3097;42.692;23.278;2024-01-30T05:41:49;96989.50;;;1.01;64.29
6132;BME280;3097;42.692;23.278;2024-01-30T05:44:15;96992.75;;;1.03;64.29
6132;BME280;3097;42.692;23.278;2024-01-30T05:46:40;97006.53;;;1.12;64.35
6132;BME280;3097;42.692;23.278;2024-01-30T05:49:06;96990.06;;;0.94;64.18
6132;BME280;3097;42.692;23.278;2024-01-30T05:51:32;96989.69;;;0.87;64.29
6132;BME280;3097;42.692;23.278;2024-01-30T05:53:57;96991.25;;;0.77;64.57
6132;BME280;3097;42.692;23.278;2024-01-30T05:56:23;96981.25;;;0.87;64.31
6132;BME280;3097;42.692;23.278;2024-01-30T05:58:48;96987.34;;;0.84;64.14
6132;BME280;3097;42.692;23.278;2024-01-30T06:01:15;96985.53;;;0.86;63.88
6132;BME280;3097;42.692;23.278;2024-01-30T06:03:41;96993.63;;;0.91;63.23
6132;BME280;3097;42.692;23.278;2024-01-30T06:06:08;96986.59;;;0.71;63.63
6132;BME280;3097;42.692;23.278;2024-01-30T06:08:34;96989.41;;;0.79;63.08
6132;BME280;3097;42.692;23.278;2024-01-30T06:10:59;96977.59;;;0.67;62.89
6132;BME280;3097;42.692;23.278;2024-01-30T06:13:25;96986.59;;;0.71;62.24
6132;BME280;3097;42.692;23.278;2024-01-30T06:15:51;97000.28;;;0.81;62.56
6132;BME280;3097;42.692;23.278;2024-01-30T06:18:17;96996.59;;;0.85;62.75
6132;BME280;3097;42.692;23.278;2024-01-30T06:20:42;96875.94;;;0.10;62.26
6132;BME280;3097;42.692;23.278;2024-01-30T06:23:08;97001.13;;;0.93;62.08
6132;BME280;3097;42.692;23.278;2024-01-30T06:25:33;97005.91;;;0.73;62.12
6132;BME280;3097;42.692;23.278;2024-01-30T06:27:59;97005.25;;;0.59;62.18
6132;BME280;3097;42.692;23.278;2024-01-30T06:30:24;97006.31;;;0.31;63.20
6132;BME280;3097;42.692;23.278;2024-01-30T06:32:50;96989.03;;;0.12;63.32
6132;BME280;3097;42.692;23.278;2024-01-30T06:35:16;96923.31;;;-0.27;63.71
6132;BME280;3097;42.692;23.278;2024-01-30T06:37:42;97004.50;;;0.33;63.62
6132;BME280;3097;42.692;23.278;2024-01-30T06:40:08;96979.38;;;0.17;63.48
6132;BME280;3097;42.692;23.278;2024-01-30T06:42:34;97005.94;;;0.37;62.94
6132;BME280;3097;42.692;23.278;2024-01-30T06:45:00;97004.69;;;0.43;63.85
6132;BME280;3097;42.692;23.278;2024-01-30T06:47:25;96985.84;;;0.34;63.53
6132;BME280;3097;42.692;23.278;2024-01-30T06:49:51;97002.72;;;0.46;63.11
6132;BME280;3097;42.692;23.278;2024-01-30T06:52:16;97007.72;;;0.48;62.87
6132;BME280;3097;42.692;23.278;2024-01-30T06:54:42;96999.38;;;0.46;63.07
6132;BME280;3097;42.692;23.278;2024-01-30T06:57:07;97008.47;;;0.61;63.12
6132;BME280;3097;42.692;23.278;2024-01-30T06:59:37;97010.09;;;0.62;62.91
6132;BME280;3097;42.692;23.278;2024-01-30T07:02:02;96955.34;;;0.47;62.22
6132;BME280;3097;42.692;23.278;2024-01-30T07:04:28;97004.91;;;0.87;62.24
6132;BME280;3097;42.692;23.278;2024-01-30T07:06:53;96901.75;;;0.27;61.92
6132;BME280;3097;42.692;23.278;2024-01-30T07:09:19;96997.94;;;1.02;61.94
6132;BME280;3097;42.692;23.278;2024-01-30T07:11:44;97015.44;;;1.29;61.83
6132;BME280;3097;42.692;23.278;2024-01-30T07:14:10;96998.16;;;1.34;61.00
6132;BME280;3097;42.692;23.278;2024-01-30T07:16:35;97008.59;;;1.53;61.08
6132;BME280;3097;42.692;23.278;2024-01-30T07:19:01;96984.19;;;1.50;60.28
6132;BME280;3097;42.692;23.278;2024-01-30T07:21:27;97018.09;;;1.84;60.26
6132;BME280;3097;42.692;23.278;2024-01-30T07:23:56;97010.59;;;1.83;59.29
6132;BME280;3097;42.692;23.278;2024-01-30T07:26:22;96996.25;;;1.71;58.85
6132;BME280;3097;42.692;23.278;2024-01-30T07:28:47;97016.25;;;1.86;58.74
6132;BME280;3097;42.692;23.278;2024-01-30T07:31:13;96996.13;;;1.83;58.64
6132;BME280;3097;42.692;23.278;2024-01-30T07:33:38;97017.53;;;2.03;58.40
6132;BME280;3097;42.692;23.278;2024-01-30T07:36:04;97016.94;;;2.11;58.18
6132;BME280;3097;42.692;23.278;2024-01-30T07:38:33;97017.16;;;2.19;57.83
6132;BME280;3097;42.692;23.278;2024-01-30T07:40:59;96973.97;;;1.85;57.63
6132;BME280;3097;42.692;23.278;2024-01-30T07:43:24;97003.19;;;1.91;57.82
6132;BME280;3097;42.692;23.278;2024-01-30T07:45:50;97007.00;;;1.97;57.19
6132;BME280;3097;42.692;23.278;2024-01-30T07:48:15;97004.38;;;2.09;57.55
6132;BME280;3097;42.692;23.278;2024-01-30T07:50:41;97007.25;;;2.16;57.67
6132;BME280;3097;42.692;23.278;2024-01-30T07:53:07;97008.16;;;2.04;56.80
6132;BME280;3097;42.692;23.278;2024-01-30T07:55:32;97005.63;;;2.04;57.49
6132;BME280;3097;42.692;23.278;2024-01-30T07:57:58;97007.13;;;2.17;57.39
6132;BME280;3097;42.692;23.278;2024-01-30T08:00:26;96981.09;;;2.14;57.20
6132;BME280;3097;42.692;23.278;2024-01-30T08:02:54;97006.78;;;2.33;56.77
6132;BME280;3097;42.692;23.278;2024-01-30T08:05:21;97001.34;;;2.15;56.77
6132;BME280;3097;42.692;23.278;2024-01-30T08:07:48;96999.16;;;2.22;57.17
6132;BME280;3097;42.692;23.278;2024-01-30T08:10:14;97004.25;;;2.33;57.06
6132;BME280;3097;42.692;23.278;2024-01-30T08:12:39;96992.50;;;3.17;55.04
6132;BME280;3097;42.692;23.278;2024-01-30T08:15:05;96971.63;;;4.44;50.69
6132;BME280;3097;42.692;23.278;2024-01-30T08:17:31;96995.72;;;5.57;49.99
6132;BME280;3097;42.692;23.278;2024-01-30T08:19:56;96987.59;;;6.18;47.33
6132;BME280;3097;42.692;23.278;2024-01-30T08:22:22;96988.41;;;6.91;46.96
6132;BME280;3097;42.692;23.278;2024-01-30T08:24:48;96985.06;;;6.45;45.86
6132;BME280;3097;42.692;23.278;2024-01-30T08:27:13;96989.78;;;6.85;46.45
6132;BME280;3097;42.692;23.278;2024-01-30T08:29:38;96993.66;;;7.07;45.47
6132;BME280;3097;42.692;23.278;2024-01-30T08:32:05;96981.84;;;6.79;44.23
6132;BME280;3097;42.692;23.278;2024-01-30T08:34:31;97002.94;;;6.73;45.00
6132;BME280;3097;42.692;23.278;2024-01-30T08:36:56;97002.31;;;6.43;45.42
6132;BME280;3097;42.692;23.278;2024-01-30T08:39:22;96978.69;;;6.22;46.29
6132;BME280;3097;42.692;23.278;2024-01-30T08:41:48;97009.28;;;6.24;45.49
6132;BME280;3097;42.692;23.278;2024-01-30T08:44:13;97002.13;;;5.80;46.08
6132;BME280;3097;42.692;23.278;2024-01-30T08:46:39;96944.91;;;4.96;47.05
6132;BME280;3097;42.692;23.278;2024-01-30T08:49:04;97010.28;;;4.99;48.09
6132;BME280;3097;42.692;23.278;2024-01-30T08:51:30;97010.81;;;5.22;49.42
6132;BME280;3097;42.692;23.278;2024-01-30T08:53:56;97004.22;;;5.29;49.25
6132;BME280;3097;42.692;23.278;2024-01-30T08:56:21;97007.59;;;5.20;48.81
6132;BME280;3097;42.692;23.278;2024-01-30T08:58:47;96995.25;;;4.96;49.11
6132;BME280;3097;42.692;23.278;2024-01-30T09:01:12;97015.53;;;4.78;49.23
6132;BME280;3097;42.692;23.278;2024-01-30T09:03:38;97013.50;;;4.72;50.04
6132;BME280;3097;42.692;23.278;2024-01-30T09:06:10;97016.88;;;4.33;50.48
6132;BME280;3097;42.692;23.278;2024-01-30T09:08:35;97019.84;;;3.98;51.89
6132;BME280;3097;42.692;23.278;2024-01-30T09:11:08;97031.28;;;4.03;53.01
6132;BME280;3097;42.692;23.278;2024-01-30T09:13:33;97015.44;;;4.40;52.46
6132;BME280;3097;42.692;23.278;2024-01-30T09:15:59;97016.13;;;4.42;52.25
6132;BME280;3097;42.692;23.278;2024-01-30T09:18:24;97002.66;;;4.40;52.38
6132;BME280;3097;42.692;23.278;2024-01-30T09:20:50;97016.13;;;4.42;52.20
6132;BME280;3097;42.692;23.278;2024-01-30T09:23:16;97021.94;;;4.13;52.71
6132;BME280;3097;42.692;23.278;2024-01-30T09:25:42;97022.34;;;3.46;54.09
6132;BME280;3097;42.692;23.278;2024-01-30T09:28:08;97005.94;;;3.39;54.46
6132;BME280;3097;42.692;23.278;2024-01-30T09:30:34;96998.09;;;3.31;55.24
6132;BME280;3097;42.692;23.278;2024-01-30T09:32:59;96992.22;;;3.52;55.90
6132;BME280;3097;42.692;23.278;2024-01-30T09:35:25;96962.13;;;3.45;54.69
6132;BME280;3097;42.692;23.278;2024-01-30T09:37:50;96995.94;;;3.68;53.87
6132;BME280;3097;42.692;23.278;2024-01-30T09:40:17;97004.09;;;3.41;54.69
6132;BME280;3097;42.692;23.278;2024-01-30T09:42:46;96999.28;;;3.27;54.58
6132;BME280;3097;42.692;23.278;2024-01-30T09:45:13;96998.56;;;3.16;55.29
6132;BME280;3097;42.692;23.278;2024-01-30T09:47:44;96998.06;;;3.22;55.05
6132;BME280;3097;42.692;23.278;2024-01-30T09:50:11;96989.03;;;3.38;54.29
6132;BME280;3097;42.692;23.278;2024-01-30T09:52:37;96986.03;;;3.54;54.50
6132;BME280;3097;42.692;23.278;2024-01-30T09:55:04;96994.03;;;3.61;53.96
6132;BME280;3097;42.692;23.278;2024-01-30T09:57:30;96992.94;;;3.63;53.39
6132;BME280;3097;42.692;23.278;2024-01-30T09:59:56;96973.69;;;3.29;53.99
6132;BME280;3097;42.692;23.278;2024-01-30T10:02:21;96989.03;;;3.38;54.15
6132;BME280;3097;42.692;23.278;2024-01-30T10:04:51;96985.91;;;3.56;53.92
6132;BME280;3097;42.692;23.278;2024-01-30T10:07:18;96995.78;;;3.70;53.81
6132;BME280;3097;42.692;23.278;2024-01-30T10:09:44;96943.09;;;3.49;53.83
6132;BME280;3097;42.692;23.278;2024-01-30T10:12:09;96971.84;;;3.82;53.19
6132;BME280;3097;42.692;23.278;2024-01-30T10:14:39;96973.22;;;3.96;53.29
6132;BME280;3097;42.692;23.278;2024-01-30T10:17:04;96985.00;;;3.87;53.10
6132;BME280;3097;42.692;23.278;2024-01-30T10:19:31;96949.69;;;3.52;53.60
6132;BME280;3097;42.692;23.278;2024-01-30T10:21:57;96975.03;;;3.54;53.89
6132;BME280;3097;42.692;23.278;2024-01-30T10:24:26;96944.63;;;3.41;53.75
6132;BME280;3097;42.692;23.278;2024-01-30T10:26:53;96952.34;;;3.50;53.73
6132;BME280;3097;42.692;23.278;2024-01-30T10:29:18;96974.97;;;3.65;53.69
6132;BME280;3097;42.692;23.278;2024-01-30T10:31:44;96976.47;;;3.67;53.74
6132;BME280;3097;42.692;23.278;2024-01-30T10:34:10;96984.59;;;3.61;53.13
6132;BME280;3097;42.692;23.278;2024-01-30T10:36:46;96979.19;;;3.55;53.11
6132;BME280;3097;42.692;23.278;2024-01-30T10:39:17;96977.03;;;3.50;53.39
6132;BME280;3097;42.692;23.278;2024-01-30T10:41:43;96977.91;;;3.39;53.47
6132;BME280;3097;42.692;23.278;2024-01-30T10:44:10;96976.59;;;3.03;54.14
6132;BME280;3097;42.692;23.278;2024-01-30T10:46:42;96967.59;;;2.99;54.46
6132;BME280;3097;42.692;23.278;2024-01-30T10:49:11;96966.22;;;3.16;54.49
6132;BME280;3097;42.692;23.278;2024-01-30T10:51:39;96932.66;;;2.90;54.82
6132;BME280;3097;42.692;23.278;2024-01-30T10:54:05;96961.69;;;2.99;54.61
6132;BME280;3097;42.692;23.278;2024-01-30T10:56:32;96946.31;;;2.89;55.01
6132;BME280;3097;42.692;23.278;2024-01-30T10:58:58;96948.13;;;2.98;55.20
6132;BME280;3097;42.692;23.278;2024-01-30T11:01:25;96948.25;;;2.97;55.10
6132;BME280;3097;42.692;23.278;2024-01-30T11:03:53;96938.94;;;3.07;55.00
6132;BME280;3097;42.692;23.278;2024-01-30T11:06:23;96942.41;;;3.06;55.00
6132;BME280;3097;42.692;23.278;2024-01-30T11:09:05;96934.50;;;3.09;55.33
6132;BME280;3097;42.692;23.278;2024-01-30T11:11:55;96926.88;;;3.09;55.93
6132;BME280;3097;42.692;23.278;2024-01-30T11:14:25;96912.81;;;2.94;55.71
6132;BME280;3097;42.692;23.278;2024-01-30T11:16:51;96930.59;;;3.05;55.52
6132;BME280;3097;42.692;23.278;2024-01-30T11:19:24;96932.16;;;3.17;55.59
6132;BME280;3097;42.692;23.278;2024-01-30T11:21:53;96932.16;;;3.17;55.13
6132;BME280;3097;42.692;23.278;2024-01-30T11:24:25;96936.19;;;3.20;55.06
6132;BME280;3097;42.692;23.278;2024-01-30T11:26:58;96933.69;;;2.88;55.64
6132;BME280;3097;42.692;23.278;2024-01-30T11:29:25;96931.84;;;2.90;56.00
6132;BME280;3097;42.692;23.278;2024-01-30T11:31:52;96919.69;;;3.14;55.94
6132;BME280;3097;42.692;23.278;2024-01-30T11:34:19;96917.38;;;3.11;55.97
6132;BME280;3097;42.692;23.278;2024-01-30T11:36:48;96925.13;;;2.89;55.97
6132;BME280;3097;42.692;23.278;2024-01-30T11:39:20;96923.81;;;2.73;56.91
6132;BME280;3097;42.692;23.278;2024-01-30T11:41:45;96917.34;;;2.69;56.44
6132;BME280;3097;42.692;23.278;2024-01-30T11:44:11;96931.44;;;2.73;56.70
6132;BME280;3097;42.692;23.278;2024-01-30T11:46:37;96929.19;;;2.59;57.01
6132;BME280;3097;42.692;23.278;2024-01-30T11:49:02;96887.94;;;2.33;57.36
6132;BME280;3097;42.692;23.278;2024-01-30T11:51:30;96928.19;;;2.71;57.30
6132;BME280;3097;42.692;23.278;2024-01-30T11:53:57;96929.09;;;2.82;56.61
6132;BME280;3097;42.692;23.278;2024-01-30T11:56:24;96922.81;;;2.86;56.64
6132;BME280;3097;42.692;23.278;2024-01-30T11:58:50;96918.41;;;2.88;56.87
6132;BME280;3097;42.692;23.278;2024-01-30T12:01:17;96909.09;;;2.98;56.59
6132;BME280;3097;42.692;23.278;2024-01-30T12:03:49;96902.91;;;2.91;56.63
6132;BME280;3097;42.692;23.278;2024-01-30T12:06:16;96885.06;;;2.70;56.88
6132;BME280;3097;42.692;23.278;2024-01-30T12:08:42;96858.59;;;2.61;56.97
6132;BME280;3097;42.692;23.278;2024-01-30T12:11:07;96844.13;;;2.62;56.43
6132;BME280;3097;42.692;23.278;2024-01-30T12:13:33;96888.78;;;2.87;57.07
6132;BME280;3097;42.692;23.278;2024-01-30T12:16:00;96856.91;;;2.71;56.80
6132;BME280;3097;42.692;23.278;2024-01-30T12:18:26;96887.72;;;2.89;56.85
6132;BME280;3097;42.692;23.278;2024-01-30T12:20:58;96882.88;;;2.86;56.91
6132;BME280;3097;42.692;23.278;2024-01-30T12:23:25;96842.59;;;2.70;57.15
6132;BME280;3097;42.692;23.278;2024-01-30T12:25:52;96875.38;;;3.05;56.32
6132;BME280;3097;42.692;23.278;2024-01-30T12:28:19;96866.22;;;3.03;56.46
6132;BME280;3097;42.692;23.278;2024-01-30T12:30:45;96837.59;;;2.90;56.10
6132;BME280;3097;42.692;23.278;2024-01-30T12:33:18;96866.69;;;3.08;56.22
6132;BME280;3097;42.692;23.278;2024-01-30T12:35:48;96863.56;;;3.04;56.57
6132;BME280;3097;42.692;23.278;2024-01-30T12:38:14;96844.31;;;2.91;56.43
6132;BME280;3097;42.692;23.278;2024-01-30T12:40:40;96870.81;;;3.09;56.43
6132;BME280;3097;42.692;23.278;2024-01-30T12:43:05;96866.06;;;3.16;56.30
6132;BME280;3097;42.692;23.278;2024-01-30T12:45:31;96866.53;;;3.30;55.82
6132;BME280;3097;42.692;23.278;2024-01-30T12:47:57;96865.84;;;3.28;55.76
6132;BME280;3097;42.692;23.278;2024-01-30T12:50:23;96862.31;;;3.20;56.09
6132;BME280;3097;42.692;23.278;2024-01-30T12:52:49;96856.41;;;3.19;55.91
6132;BME280;3097;42.692;23.278;2024-01-30T12:55:15;96810.69;;;2.97;55.98
6132;BME280;3097;42.692;23.278;2024-01-30T12:57:40;96836.53;;;3.13;55.78
6132;BME280;3097;42.692;23.278;2024-01-30T13:00:07;96856.16;;;2.81;56.36
6132;BME280;3097;42.692;23.278;2024-01-30T13:02:36;96854.94;;;2.54;57.73
6132;BME280;3097;42.692;23.278;2024-01-30T13:05:03;96828.81;;;2.41;57.45
6132;BME280;3097;42.692;23.278;2024-01-30T13:07:29;96844.47;;;2.57;57.67
6132;BME280;3097;42.692;23.278;2024-01-30T13:09:58;96834.69;;;2.73;57.58
6132;BME280;3097;42.692;23.278;2024-01-30T13:12:29;96842.31;;;2.94;57.43
6132;BME280;3097;42.692;23.278;2024-01-30T13:14:55;96834.94;;;2.91;56.90
6132;BME280;3097;42.692;23.278;2024-01-30T13:17:20;96842.94;;;2.87;56.88